sensor_id;sensor_type;location;lat;lon;timestamp;P1;durP1;ratioP1;P2;durP2;ratioP2
11817;SDS011;5966;52.402;5.322;2022-10-17T00:00:05;3.73;;;2.70;;
11817;SDS011;5966;52.402;5.322;2022-10-17T00:03:06;2.40;;;2.20;;
11817;SDS011;5966;52.402;5.322;2022-10-17T00:05:44;3.63;;;2.70;;
11817;SDS011;5966;52.402;5.322;2022-10-17T00:08:14;4.90;;;3.37;;
11817;SDS011;5966;52.402;5.322;2022-10-17T00:10:44;3.70;;;2.60;;
11817;SDS011;5966;52.402;5.322;2022-10-17T00:13:22;3.93;;;2.80;;
11817;SDS011;5966;52.402;5.322;2022-10-17T00:15:55;5.13;;;2.60;;
11817;SDS011;5966;52.402;5.322;2022-10-17T00:18:30;2.87;;;2.57;;
11817;SDS011;5966;52.402;5.322;2022-10-17T00:20:58;3.37;;;2.77;;
11817;SDS011;5966;52.402;5.322;2022-10-17T00:23:29;3.83;;;2.60;;
11817;SDS011;5966;52.402;5.322;2022-10-17T00:25:58;3.80;;;2.97;;
11817;SDS011;5966;52.402;5.322;2022-10-17T00:28:26;5.87;;;2.90;;
11817;SDS011;5966;52.402;5.322;2022-10-17T00:30:56;3.10;;;2.80;;
11817;SDS011;5966;52.402;5.322;2022-10-17T00:33:25;6.67;;;2.87;;
11817;SDS011;5966;52.402;5.322;2022-10-17T00:36:02;3.37;;;2.83;;
11817;SDS011;5966;52.402;5.322;2022-10-17T00:38:31;5.90;;;2.60;;
11817;SDS011;5966;52.402;5.322;2022-10-17T00:40:59;3.80;;;2.90;;
11817;SDS011;5966;52.402;5.322;2022-10-17T00:43:28;3.50;;;2.50;;
11817;SDS011;5966;52.402;5.322;2022-10-17T00:45:56;3.23;;;2.63;;
11817;SDS011;5966;52.402;5.322;2022-10-17T00:48:26;4.77;;;2.53;;
11817;SDS011;5966;52.402;5.322;2022-10-17T00:50:56;3.80;;;2.80;;
11817;SDS011;5966;52.402;5.322;2022-10-17T00:53:25;3.37;;;3.07;;
11817;SDS011;5966;52.402;5.322;2022-10-17T00:55:54;3.30;;;2.90;;
11817;SDS011;5966;52.402;5.322;2022-10-17T00:58:24;3.77;;;3.27;;
11817;SDS011;5966;52.402;5.322;2022-10-17T01:00:53;4.40;;;3.30;;
11817;SDS011;5966;52.402;5.322;2022-10-17T01:03:24;4.77;;;3.10;;
11817;SDS011;5966;52.402;5.322;2022-10-17T01:05:51;5.80;;;3.30;;
11817;SDS011;5966;52.402;5.322;2022-10-17T01:08:21;3.60;;;3.07;;
11817;SDS011;5966;52.402;5.322;2022-10-17T01:10:54;6.50;;;3.43;;
11817;SDS011;5966;52.402;5.322;2022-10-17T01:13:29;5.80;;;3.93;;
11817;SDS011;5966;52.402;5.322;2022-10-17T01:16:07;5.03;;;3.07;;
11817;SDS011;5966;52.402;5.322;2022-10-17T01:18:45;6.57;;;3.10;;
11817;SDS011;5966;52.402;5.322;2022-10-17T01:21:31;3.17;;;2.90;;
11817;SDS011;5966;52.402;5.322;2022-10-17T01:24:11;4.87;;;3.03;;
11817;SDS011;5966;52.402;5.322;2022-10-17T01:30:07;5.97;;;3.10;;
11817;SDS011;5966;52.402;5.322;2022-10-17T01:32:57;4.40;;;3.53;;
11817;SDS011;5966;52.402;5.322;2022-10-17T01:35:28;4.60;;;3.80;;
11817;SDS011;5966;52.402;5.322;2022-10-17T01:38:02;4.27;;;3.53;;
11817;SDS011;5966;52.402;5.322;2022-10-17T01:43:22;4.87;;;3.47;;
11817;SDS011;5966;52.402;5.322;2022-10-17T01:45:57;5.53;;;3.27;;
11817;SDS011;5966;52.402;5.322;2022-10-17T01:48:30;4.53;;;3.73;;
11817;SDS011;5966;52.402;5.322;2022-10-17T01:51:02;4.00;;;3.50;;
11817;SDS011;5966;52.402;5.322;2022-10-17T01:53:35;7.63;;;3.90;;
11817;SDS011;5966;52.402;5.322;2022-10-17T01:56:07;3.93;;;3.53;;
11817;SDS011;5966;52.402;5.322;2022-10-17T01:58:39;5.47;;;3.80;;
11817;SDS011;5966;52.402;5.322;2022-10-17T02:01:12;4.47;;;3.80;;
11817;SDS011;5966;52.402;5.322;2022-10-17T02:03:41;4.13;;;3.63;;
11817;SDS011;5966;52.402;5.322;2022-10-17T02:06:12;4.17;;;3.77;;
11817;SDS011;5966;52.402;5.322;2022-10-17T02:08:42;5.50;;;4.30;;
11817;SDS011;5966;52.402;5.322;2022-10-17T02:11:18;5.97;;;4.57;;
11817;SDS011;5966;52.402;5.322;2022-10-17T02:13:52;5.13;;;4.63;;
11817;SDS011;5966;52.402;5.322;2022-10-17T02:16:38;4.70;;;4.30;;
11817;SDS011;5966;52.402;5.322;2022-10-17T02:22:12;7.43;;;4.80;;
11817;SDS011;5966;52.402;5.322;2022-10-17T02:24:46;5.00;;;4.50;;
11817;SDS011;5966;52.402;5.322;2022-10-17T02:27:22;7.63;;;4.80;;
11817;SDS011;5966;52.402;5.322;2022-10-17T02:29:59;5.00;;;4.50;;
11817;SDS011;5966;52.402;5.322;2022-10-17T02:32:34;6.03;;;5.43;;
11817;SDS011;5966;52.402;5.322;2022-10-17T02:35:14;5.63;;;5.03;;
11817;SDS011;5966;52.402;5.322;2022-10-17T02:37:51;7.70;;;5.63;;
11817;SDS011;5966;52.402;5.322;2022-10-17T02:40:20;6.10;;;5.23;;
11817;SDS011;5966;52.402;5.322;2022-10-17T02:42:50;6.23;;;5.03;;
11817;SDS011;5966;52.402;5.322;2022-10-17T02:45:20;7.07;;;5.73;;
11817;SDS011;5966;52.402;5.322;2022-10-17T02:47:58;6.00;;;5.33;;
11817;SDS011;5966;52.402;5.322;2022-10-17T02:50:53;8.00;;;5.93;;
11817;SDS011;5966;52.402;5.322;2022-10-17T02:53:36;6.53;;;5.10;;
11817;SDS011;5966;52.402;5.322;2022-10-17T02:56:13;7.43;;;5.10;;
11817;SDS011;5966;52.402;5.322;2022-10-17T02:59:08;8.70;;;5.30;;
11817;SDS011;5966;52.402;5.322;2022-10-17T03:01:42;6.23;;;4.90;;
11817;SDS011;5966;52.402;5.322;2022-10-17T03:04:14;7.10;;;5.93;;
11817;SDS011;5966;52.402;5.322;2022-10-17T03:07:05;5.73;;;5.23;;
11817;SDS011;5966;52.402;5.322;2022-10-17T03:09:33;5.73;;;5.20;;
11817;SDS011;5966;52.402;5.322;2022-10-17T03:12:01;5.40;;;4.90;;
11817;SDS011;5966;52.402;5.322;2022-10-17T03:14:29;6.40;;;5.80;;
11817;SDS011;5966;52.402;5.322;2022-10-17T03:17:06;6.83;;;5.30;;
11817;SDS011;5966;52.402;5.322;2022-10-17T03:19:36;6.17;;;5.67;;
11817;SDS011;5966;52.402;5.322;2022-10-17T03:22:06;7.17;;;5.53;;
11817;SDS011;5966;52.402;5.322;2022-10-17T03:24:33;7.40;;;5.13;;
11817;SDS011;5966;52.402;5.322;2022-10-17T03:27:02;5.80;;;5.27;;
11817;SDS011;5966;52.402;5.322;2022-10-17T03:29:30;5.97;;;5.07;;
11817;SDS011;5966;52.402;5.322;2022-10-17T03:31:59;6.80;;;5.60;;
11817;SDS011;5966;52.402;5.322;2022-10-17T03:34:27;6.73;;;5.27;;
11817;SDS011;5966;52.402;5.322;2022-10-17T03:36:55;6.00;;;5.50;;
11817;SDS011;5966;52.402;5.322;2022-10-17T03:39:24;6.70;;;5.27;;
11817;SDS011;5966;52.402;5.322;2022-10-17T03:41:52;9.50;;;6.87;;
11817;SDS011;5966;52.402;5.322;2022-10-17T03:44:20;7.70;;;5.40;;
11817;SDS011;5966;52.402;5.322;2022-10-17T03:46:48;5.57;;;5.03;;
11817;SDS011;5966;52.402;5.322;2022-10-17T03:49:17;6.10;;;5.47;;
11817;SDS011;5966;52.402;5.322;2022-10-17T03:51:45;6.97;;;5.40;;
11817;SDS011;5966;52.402;5.322;2022-10-17T03:54:12;7.20;;;5.40;;
11817;SDS011;5966;52.402;5.322;2022-10-17T03:56:42;6.90;;;5.10;;
11817;SDS011;5966;52.402;5.322;2022-10-17T03:59:11;5.97;;;5.20;;
11817;SDS011;5966;52.402;5.322;2022-10-17T04:01:40;6.60;;;4.73;;
11817;SDS011;5966;52.402;5.322;2022-10-17T04:04:08;6.40;;;5.80;;
11817;SDS011;5966;52.402;5.322;2022-10-17T04:06:36;5.43;;;4.93;;
11817;SDS011;5966;52.402;5.322;2022-10-17T04:09:04;7.63;;;5.47;;
11817;SDS011;5966;52.402;5.322;2022-10-17T04:11:33;5.80;;;5.30;;
11817;SDS011;5966;52.402;5.322;2022-10-17T04:14:06;7.73;;;5.53;;
11817;SDS011;5966;52.402;5.322;2022-10-17T04:16:34;6.37;;;5.33;;
11817;SDS011;5966;52.402;5.322;2022-10-17T04:19:05;6.17;;;5.00;;
11817;SDS011;5966;52.402;5.322;2022-10-17T04:21:41;6.00;;;4.97;;
11817;SDS011;5966;52.402;5.322;2022-10-17T04:24:09;5.63;;;5.03;;
11817;SDS011;5966;52.402;5.322;2022-10-17T04:26:39;5.30;;;4.90;;
11817;SDS011;5966;52.402;5.322;2022-10-17T04:29:12;5.50;;;5.00;;
11817;SDS011;5966;52.402;5.322;2022-10-17T04:32:10;6.83;;;4.97;;
11817;SDS011;5966;52.402;5.322;2022-10-17T04:34:55;6.37;;;5.13;;
11817;SDS011;5966;52.402;5.322;2022-10-17T04:37:23;5.47;;;4.97;;
11817;SDS011;5966;52.402;5.322;2022-10-17T04:42:34;5.33;;;4.80;;
11817;SDS011;5966;52.402;5.322;2022-10-17T04:45:18;5.67;;;5.17;;
11817;SDS011;5966;52.402;5.322;2022-10-17T04:47:47;6.77;;;5.10;;
11817;SDS011;5966;52.402;5.322;2022-10-17T04:50:15;5.23;;;4.77;;
11817;SDS011;5966;52.402;5.322;2022-10-17T04:52:47;6.63;;;5.10;;
11817;SDS011;5966;52.402;5.322;2022-10-17T04:55:15;5.50;;;4.50;;
11817;SDS011;5966;52.402;5.322;2022-10-17T04:57:44;5.63;;;5.13;;
11817;SDS011;5966;52.402;5.322;2022-10-17T05:00:14;5.93;;;5.30;;
11817;SDS011;5966;52.402;5.322;2022-10-17T05:02:43;6.47;;;4.97;;
11817;SDS011;5966;52.402;5.322;2022-10-17T05:05:13;5.50;;;5.00;;
11817;SDS011;5966;52.402;5.322;2022-10-17T05:07:41;6.23;;;4.60;;
11817;SDS011;5966;52.402;5.322;2022-10-17T05:10:08;5.13;;;4.60;;
11817;SDS011;5966;52.402;5.322;2022-10-17T05:12:39;6.00;;;4.80;;
11817;SDS011;5966;52.402;5.322;2022-10-17T05:15:10;5.80;;;4.67;;
11817;SDS011;5966;52.402;5.322;2022-10-17T05:17:37;8.00;;;4.97;;
11817;SDS011;5966;52.402;5.322;2022-10-17T05:20:07;5.70;;;5.10;;
11817;SDS011;5966;52.402;5.322;2022-10-17T05:22:40;5.87;;;4.33;;
11817;SDS011;5966;52.402;5.322;2022-10-17T05:25:09;5.13;;;4.63;;
11817;SDS011;5966;52.402;5.322;2022-10-17T05:27:39;5.90;;;4.40;;
11817;SDS011;5966;52.402;5.322;2022-10-17T05:30:07;5.33;;;4.83;;
11817;SDS011;5966;52.402;5.322;2022-10-17T05:32:40;7.90;;;4.60;;
11817;SDS011;5966;52.402;5.322;2022-10-17T05:35:09;4.97;;;4.43;;
11817;SDS011;5966;52.402;5.322;2022-10-17T05:37:43;5.97;;;4.43;;
11817;SDS011;5966;52.402;5.322;2022-10-17T05:40:11;5.20;;;4.53;;
11817;SDS011;5966;52.402;5.322;2022-10-17T05:42:44;4.53;;;4.13;;
11817;SDS011;5966;52.402;5.322;2022-10-17T05:45:17;8.50;;;4.60;;
11817;SDS011;5966;52.402;5.322;2022-10-17T05:47:47;6.93;;;4.70;;
11817;SDS011;5966;52.402;5.322;2022-10-17T05:50:46;5.33;;;4.60;;
11817;SDS011;5966;52.402;5.322;2022-10-17T05:53:18;5.03;;;4.47;;
11817;SDS011;5966;52.402;5.322;2022-10-17T05:55:53;4.80;;;4.40;;
11817;SDS011;5966;52.402;5.322;2022-10-17T05:58:22;6.33;;;4.13;;
11817;SDS011;5966;52.402;5.322;2022-10-17T06:01:10;4.60;;;4.20;;
11817;SDS011;5966;52.402;5.322;2022-10-17T06:03:42;5.80;;;5.00;;
11817;SDS011;5966;52.402;5.322;2022-10-17T06:06:14;7.30;;;4.43;;
11817;SDS011;5966;52.402;5.322;2022-10-17T06:08:45;11.47;;;4.43;;
11817;SDS011;5966;52.402;5.322;2022-10-17T06:12:16;6.73;;;4.40;;
11817;SDS011;5966;52.402;5.322;2022-10-17T06:14:45;5.33;;;4.83;;
11817;SDS011;5966;52.402;5.322;2022-10-17T06:17:21;7.07;;;4.93;;
11817;SDS011;5966;52.402;5.322;2022-10-17T06:19:50;6.70;;;4.53;;
11817;SDS011;5966;52.402;5.322;2022-10-17T06:23:13;5.67;;;4.20;;
11817;SDS011;5966;52.402;5.322;2022-10-17T06:25:42;5.27;;;4.57;;
11817;SDS011;5966;52.402;5.322;2022-10-17T06:28:10;6.00;;;4.50;;
11817;SDS011;5966;52.402;5.322;2022-10-17T06:30:51;6.07;;;4.07;;
11817;SDS011;5966;52.402;5.322;2022-10-17T06:33:22;4.77;;;4.37;;
11817;SDS011;5966;52.402;5.322;2022-10-17T06:35:58;5.20;;;4.30;;
11817;SDS011;5966;52.402;5.322;2022-10-17T06:42:05;7.63;;;4.90;;
11817;SDS011;5966;52.402;5.322;2022-10-17T06:44:33;5.27;;;4.60;;
11817;SDS011;5966;52.402;5.322;2022-10-17T06:47:01;5.93;;;4.80;;
11817;SDS011;5966;52.402;5.322;2022-10-17T06:49:29;6.40;;;4.70;;
11817;SDS011;5966;52.402;5.322;2022-10-17T06:52:00;4.93;;;4.50;;
11817;SDS011;5966;52.402;5.322;2022-10-17T06:55:09;5.53;;;4.43;;
11817;SDS011;5966;52.402;5.322;2022-10-17T07:00:37;4.60;;;4.20;;
11817;SDS011;5966;52.402;5.322;2022-10-17T07:03:05;6.50;;;4.67;;
11817;SDS011;5966;52.402;5.322;2022-10-17T07:05:33;5.07;;;4.53;;
11817;SDS011;5966;52.402;5.322;2022-10-17T07:08:01;5.53;;;4.60;;
11817;SDS011;5966;52.402;5.322;2022-10-17T07:10:30;6.23;;;4.87;;
11817;SDS011;5966;52.402;5.322;2022-10-17T07:13:25;5.90;;;4.73;;
11817;SDS011;5966;52.402;5.322;2022-10-17T07:16:10;5.17;;;4.23;;
11817;SDS011;5966;52.402;5.322;2022-10-17T07:18:39;5.80;;;4.70;;
11817;SDS011;5966;52.402;5.322;2022-10-17T07:21:08;6.00;;;4.43;;
11817;SDS011;5966;52.402;5.322;2022-10-17T07:23:39;8.57;;;4.53;;
11817;SDS011;5966;52.402;5.322;2022-10-17T07:26:09;7.30;;;4.87;;
11817;SDS011;5966;52.402;5.322;2022-10-17T07:28:40;6.63;;;5.03;;
11817;SDS011;5966;52.402;5.322;2022-10-17T07:31:10;5.93;;;4.87;;
11817;SDS011;5966;52.402;5.322;2022-10-17T07:33:40;7.43;;;4.97;;
11817;SDS011;5966;52.402;5.322;2022-10-17T07:36:08;5.80;;;4.73;;
11817;SDS011;5966;52.402;5.322;2022-10-17T07:38:37;5.60;;;4.63;;
11817;SDS011;5966;52.402;5.322;2022-10-17T07:41:06;6.80;;;4.80;;
11817;SDS011;5966;52.402;5.322;2022-10-17T07:43:35;6.10;;;4.63;;
11817;SDS011;5966;52.402;5.322;2022-10-17T07:46:05;7.03;;;4.43;;
11817;SDS011;5966;52.402;5.322;2022-10-17T07:48:33;5.37;;;4.87;;
11817;SDS011;5966;52.402;5.322;2022-10-17T07:51:01;5.60;;;4.60;;
11817;SDS011;5966;52.402;5.322;2022-10-17T07:53:33;8.77;;;5.57;;
11817;SDS011;5966;52.402;5.322;2022-10-17T07:56:03;4.50;;;4.03;;
11817;SDS011;5966;52.402;5.322;2022-10-17T07:58:33;8.23;;;4.13;;
11817;SDS011;5966;52.402;5.322;2022-10-17T08:01:01;6.17;;;4.47;;
11817;SDS011;5966;52.402;5.322;2022-10-17T08:03:33;4.80;;;4.20;;
11817;SDS011;5966;52.402;5.322;2022-10-17T08:06:01;4.83;;;4.43;;
11817;SDS011;5966;52.402;5.322;2022-10-17T08:08:29;6.60;;;4.10;;
11817;SDS011;5966;52.402;5.322;2022-10-17T08:11:00;4.80;;;4.40;;
11817;SDS011;5966;52.402;5.322;2022-10-17T08:13:30;5.23;;;4.40;;
11817;SDS011;5966;52.402;5.322;2022-10-17T08:15:58;11.03;;;5.07;;
11817;SDS011;5966;52.402;5.322;2022-10-17T08:18:27;5.80;;;4.80;;
11817;SDS011;5966;52.402;5.322;2022-10-17T08:20:59;6.10;;;4.83;;
11817;SDS011;5966;52.402;5.322;2022-10-17T08:23:27;5.70;;;4.50;;
11817;SDS011;5966;52.402;5.322;2022-10-17T08:25:57;7.57;;;4.40;;
11817;SDS011;5966;52.402;5.322;2022-10-17T08:28:26;7.00;;;4.80;;
11817;SDS011;5966;52.402;5.322;2022-10-17T08:31:00;6.03;;;4.53;;
11817;SDS011;5966;52.402;5.322;2022-10-17T08:33:29;7.87;;;4.23;;
11817;SDS011;5966;52.402;5.322;2022-10-17T08:36:00;5.60;;;4.37;;
11817;SDS011;5966;52.402;5.322;2022-10-17T08:38:30;9.23;;;4.23;;
11817;SDS011;5966;52.402;5.322;2022-10-17T08:41:03;5.87;;;4.40;;
11817;SDS011;5966;52.402;5.322;2022-10-17T08:43:38;4.93;;;4.03;;
11817;SDS011;5966;52.402;5.322;2022-10-17T08:46:16;7.10;;;4.50;;
11817;SDS011;5966;52.402;5.322;2022-10-17T08:48:45;8.00;;;4.67;;
11817;SDS011;5966;52.402;5.322;2022-10-17T08:51:18;5.63;;;4.93;;
11817;SDS011;5966;52.402;5.322;2022-10-17T08:53:50;8.37;;;4.23;;
11817;SDS011;5966;52.402;5.322;2022-10-17T08:56:24;4.93;;;4.40;;
11817;SDS011;5966;52.402;5.322;2022-10-17T08:59:13;5.50;;;4.40;;
11817;SDS011;5966;52.402;5.322;2022-10-17T09:01:46;6.87;;;4.50;;
11817;SDS011;5966;52.402;5.322;2022-10-17T09:04:23;7.13;;;4.37;;
11817;SDS011;5966;52.402;5.322;2022-10-17T09:07:05;6.07;;;4.00;;
11817;SDS011;5966;52.402;5.322;2022-10-17T09:09:41;5.80;;;4.73;;
11817;SDS011;5966;52.402;5.322;2022-10-17T09:12:17;7.60;;;4.37;;
11817;SDS011;5966;52.402;5.322;2022-10-17T09:17:57;9.57;;;4.77;;
11817;SDS011;5966;52.402;5.322;2022-10-17T09:20:29;4.63;;;4.20;;
11817;SDS011;5966;52.402;5.322;2022-10-17T09:23:02;6.07;;;4.20;;
11817;SDS011;5966;52.402;5.322;2022-10-17T09:25:39;8.90;;;4.70;;
11817;SDS011;5966;52.402;5.322;2022-10-17T09:28:11;8.13;;;4.83;;
11817;SDS011;5966;52.402;5.322;2022-10-17T09:30:45;8.77;;;5.03;;
11817;SDS011;5966;52.402;5.322;2022-10-17T09:33:29;8.13;;;4.70;;
11817;SDS011;5966;52.402;5.322;2022-10-17T09:36:20;5.93;;;4.50;;
11817;SDS011;5966;52.402;5.322;2022-10-17T09:38:53;5.47;;;4.07;;
11817;SDS011;5966;52.402;5.322;2022-10-17T09:41:23;6.93;;;4.77;;
11817;SDS011;5966;52.402;5.322;2022-10-17T09:44:14;5.20;;;4.70;;
11817;SDS011;5966;52.402;5.322;2022-10-17T09:47:00;6.23;;;4.50;;
11817;SDS011;5966;52.402;5.322;2022-10-17T09:49:48;6.83;;;4.47;;
11817;SDS011;5966;52.402;5.322;2022-10-17T09:52:26;7.00;;;4.43;;
11817;SDS011;5966;52.402;5.322;2022-10-17T09:55:10;5.80;;;4.40;;
11817;SDS011;5966;52.402;5.322;2022-10-17T09:57:50;6.90;;;4.23;;
11817;SDS011;5966;52.402;5.322;2022-10-17T10:00:24;7.50;;;4.63;;
11817;SDS011;5966;52.402;5.322;2022-10-17T10:03:09;6.70;;;4.20;;
11817;SDS011;5966;52.402;5.322;2022-10-17T10:05:56;5.10;;;4.50;;
11817;SDS011;5966;52.402;5.322;2022-10-17T10:08:30;6.73;;;4.57;;
11817;SDS011;5966;52.402;5.322;2022-10-17T10:11:04;6.67;;;4.70;;
11817;SDS011;5966;52.402;5.322;2022-10-17T10:13:40;5.77;;;4.30;;
11817;SDS011;5966;52.402;5.322;2022-10-17T10:16:29;5.60;;;5.10;;
11817;SDS011;5966;52.402;5.322;2022-10-17T10:19:14;6.67;;;4.30;;
11817;SDS011;5966;52.402;5.322;2022-10-17T10:21:53;5.37;;;4.80;;
11817;SDS011;5966;52.402;5.322;2022-10-17T10:24:27;5.80;;;5.30;;
11817;SDS011;5966;52.402;5.322;2022-10-17T10:27:00;5.90;;;4.63;;
11817;SDS011;5966;52.402;5.322;2022-10-17T10:29:33;12.50;;;5.93;;
11817;SDS011;5966;52.402;5.322;2022-10-17T10:32:06;5.20;;;4.67;;
11817;SDS011;5966;52.402;5.322;2022-10-17T10:34:45;6.20;;;5.03;;
11817;SDS011;5966;52.402;5.322;2022-10-17T10:37:19;6.20;;;4.97;;
11817;SDS011;5966;52.402;5.322;2022-10-17T10:39:51;5.57;;;4.97;;
11817;SDS011;5966;52.402;5.322;2022-10-17T10:42:27;7.33;;;5.37;;
11817;SDS011;5966;52.402;5.322;2022-10-17T10:45:02;6.13;;;4.50;;
11817;SDS011;5966;52.402;5.322;2022-10-17T10:48:12;5.67;;;4.27;;
11817;SDS011;5966;52.402;5.322;2022-10-17T10:51:06;5.10;;;4.60;;
11817;SDS011;5966;52.402;5.322;2022-10-17T10:53:50;6.03;;;4.43;;
11817;SDS011;5966;52.402;5.322;2022-10-17T10:59:37;5.87;;;4.40;;
11817;SDS011;5966;52.402;5.322;2022-10-17T11:02:24;6.03;;;4.50;;
11817;SDS011;5966;52.402;5.322;2022-10-17T11:05:34;4.43;;;4.03;;
11817;SDS011;5966;52.402;5.322;2022-10-17T11:08:25;7.47;;;4.23;;
11817;SDS011;5966;52.402;5.322;2022-10-17T11:10:59;5.63;;;4.07;;
11817;SDS011;5966;52.402;5.322;2022-10-17T11:13:45;4.73;;;4.27;;
11817;SDS011;5966;52.402;5.322;2022-10-17T11:19:37;3.73;;;3.40;;
11817;SDS011;5966;52.402;5.322;2022-10-17T11:22:13;5.37;;;3.63;;
11817;SDS011;5966;52.402;5.322;2022-10-17T11:24:55;4.40;;;3.50;;
11817;SDS011;5966;52.402;5.322;2022-10-17T11:27:28;4.10;;;3.70;;
11817;SDS011;5966;52.402;5.322;2022-10-17T11:30:11;3.73;;;3.33;;
11817;SDS011;5966;52.402;5.322;2022-10-17T11:32:47;4.30;;;2.70;;
11817;SDS011;5966;52.402;5.322;2022-10-17T11:35:27;2.73;;;2.53;;
11817;SDS011;5966;52.402;5.322;2022-10-17T11:38:13;2.00;;;1.90;;
11817;SDS011;5966;52.402;5.322;2022-10-17T11:40:48;1.87;;;1.67;;
11817;SDS011;5966;52.402;5.322;2022-10-17T11:43:19;2.43;;;1.30;;
11817;SDS011;5966;52.402;5.322;2022-10-17T11:45:54;1.20;;;1.10;;
11817;SDS011;5966;52.402;5.322;2022-10-17T11:48:27;3.33;;;1.07;;
11817;SDS011;5966;52.402;5.322;2022-10-17T11:51:08;1.20;;;1.10;;
11817;SDS011;5966;52.402;5.322;2022-10-17T11:54:03;0.77;;;0.77;;
11817;SDS011;5966;52.402;5.322;2022-10-17T11:56:41;1.03;;;0.53;;
11817;SDS011;5966;52.402;5.322;2022-10-17T11:59:39;2.10;;;0.87;;
11817;SDS011;5966;52.402;5.322;2022-10-17T12:02:20;0.80;;;0.60;;
11817;SDS011;5966;52.402;5.322;2022-10-17T12:05:12;0.77;;;0.77;;
11817;SDS011;5966;52.402;5.322;2022-10-17T12:07:53;1.00;;;0.90;;
11817;SDS011;5966;52.402;5.322;2022-10-17T12:10:29;0.97;;;0.77;;
11817;SDS011;5966;52.402;5.322;2022-10-17T12:19:18;0.80;;;0.70;;
11817;SDS011;5966;52.402;5.322;2022-10-17T12:21:56;2.27;;;0.80;;
11817;SDS011;5966;52.402;5.322;2022-10-17T12:24:34;0.87;;;0.70;;
11817;SDS011;5966;52.402;5.322;2022-10-17T12:27:23;1.23;;;0.87;;
11817;SDS011;5966;52.402;5.322;2022-10-17T12:30:19;1.80;;;1.00;;
11817;SDS011;5966;52.402;5.322;2022-10-17T12:32:58;3.93;;;0.90;;
11817;SDS011;5966;52.402;5.322;2022-10-17T12:35:34;0.60;;;0.53;;
11817;SDS011;5966;52.402;5.322;2022-10-17T12:41:02;1.53;;;1.00;;
11817;SDS011;5966;52.402;5.322;2022-10-17T12:56:42;1.63;;;0.93;;
11817;SDS011;5966;52.402;5.322;2022-10-17T12:59:14;1.17;;;1.07;;
11817;SDS011;5966;52.402;5.322;2022-10-17T13:01:44;2.00;;;1.40;;
11817;SDS011;5966;52.402;5.322;2022-10-17T13:04:14;1.67;;;1.10;;
11817;SDS011;5966;52.402;5.322;2022-10-17T13:06:59;2.83;;;1.60;;
11817;SDS011;5966;52.402;5.322;2022-10-17T13:09:30;3.10;;;1.60;;
11817;SDS011;5966;52.402;5.322;2022-10-17T13:15:10;1.70;;;1.47;;
11817;SDS011;5966;52.402;5.322;2022-10-17T13:17:56;3.30;;;1.40;;
11817;SDS011;5966;52.402;5.322;2022-10-17T13:21:02;1.90;;;1.70;;
11817;SDS011;5966;52.402;5.322;2022-10-17T13:26:52;2.43;;;1.90;;
11817;SDS011;5966;52.402;5.322;2022-10-17T13:29:24;2.10;;;1.90;;
11817;SDS011;5966;52.402;5.322;2022-10-17T13:32:00;1.90;;;1.80;;
11817;SDS011;5966;52.402;5.322;2022-10-17T13:34:38;2.60;;;2.20;;
11817;SDS011;5966;52.402;5.322;2022-10-17T13:38:00;2.17;;;1.97;;
11817;SDS011;5966;52.402;5.322;2022-10-17T13:40:41;2.70;;;2.50;;
11817;SDS011;5966;52.402;5.322;2022-10-17T13:43:18;3.07;;;2.67;;
11817;SDS011;5966;52.402;5.322;2022-10-17T13:45:50;2.60;;;2.40;;
11817;SDS011;5966;52.402;5.322;2022-10-17T13:48:51;4.37;;;2.57;;
11817;SDS011;5966;52.402;5.322;2022-10-17T13:51:24;2.30;;;2.10;;
11817;SDS011;5966;52.402;5.322;2022-10-17T13:53:57;2.20;;;2.00;;
11817;SDS011;5966;52.402;5.322;2022-10-17T13:57:23;3.63;;;2.07;;
11817;SDS011;5966;52.402;5.322;2022-10-17T14:00:41;2.37;;;2.17;;
11817;SDS011;5966;52.402;5.322;2022-10-17T14:03:14;2.27;;;2.07;;
11817;SDS011;5966;52.402;5.322;2022-10-17T14:09:16;3.10;;;2.10;;
11817;SDS011;5966;52.402;5.322;2022-10-17T14:12:05;2.63;;;2.37;;
11817;SDS011;5966;52.402;5.322;2022-10-17T14:15:05;2.40;;;2.20;;
11817;SDS011;5966;52.402;5.322;2022-10-17T14:18:20;3.10;;;2.20;;
11817;SDS011;5966;52.402;5.322;2022-10-17T14:21:01;2.10;;;1.80;;
11817;SDS011;5966;52.402;5.322;2022-10-17T14:24:10;5.13;;;2.20;;
11817;SDS011;5966;52.402;5.322;2022-10-17T14:26:47;2.30;;;2.00;;
11817;SDS011;5966;52.402;5.322;2022-10-17T14:29:21;3.57;;;2.23;;
11817;SDS011;5966;52.402;5.322;2022-10-17T14:31:56;3.33;;;2.40;;
11817;SDS011;5966;52.402;5.322;2022-10-17T14:34:30;2.30;;;2.10;;
11817;SDS011;5966;52.402;5.322;2022-10-17T14:37:17;3.07;;;2.23;;
11817;SDS011;5966;52.402;5.322;2022-10-17T14:40:15;2.60;;;2.40;;
11817;SDS011;5966;52.402;5.322;2022-10-17T14:42:46;2.93;;;2.40;;
11817;SDS011;5966;52.402;5.322;2022-10-17T14:45:17;4.40;;;2.50;;
11817;SDS011;5966;52.402;5.322;2022-10-17T14:47:54;4.43;;;2.30;;
11817;SDS011;5966;52.402;5.322;2022-10-17T14:50:28;3.83;;;2.60;;
11817;SDS011;5966;52.402;5.322;2022-10-17T14:52:58;3.40;;;2.83;;
11817;SDS011;5966;52.402;5.322;2022-10-17T14:55:32;8.23;;;2.63;;
11817;SDS011;5966;52.402;5.322;2022-10-17T14:58:14;2.80;;;2.50;;
11817;SDS011;5966;52.402;5.322;2022-10-17T15:00:42;3.23;;;2.57;;
11817;SDS011;5966;52.402;5.322;2022-10-17T15:03:10;3.40;;;2.80;;
11817;SDS011;5966;52.402;5.322;2022-10-17T15:05:40;4.43;;;2.83;;
11817;SDS011;5966;52.402;5.322;2022-10-17T15:08:09;4.03;;;2.73;;
11817;SDS011;5966;52.402;5.322;2022-10-17T15:10:41;3.20;;;2.90;;
11817;SDS011;5966;52.402;5.322;2022-10-17T15:13:12;5.00;;;3.30;;
11817;SDS011;5966;52.402;5.322;2022-10-17T15:15:54;3.60;;;2.90;;
11817;SDS011;5966;52.402;5.322;2022-10-17T15:18:21;5.03;;;2.87;;
11817;SDS011;5966;52.402;5.322;2022-10-17T15:20:51;4.00;;;2.90;;
11817;SDS011;5966;52.402;5.322;2022-10-17T15:23:31;4.13;;;3.27;;
11817;SDS011;5966;52.402;5.322;2022-10-17T15:26:15;4.83;;;3.47;;
11817;SDS011;5966;52.402;5.322;2022-10-17T15:28:45;5.37;;;3.20;;
11817;SDS011;5966;52.402;5.322;2022-10-17T15:31:15;5.97;;;3.10;;
11817;SDS011;5966;52.402;5.322;2022-10-17T15:33:45;5.07;;;3.50;;
11817;SDS011;5966;52.402;5.322;2022-10-17T15:36:20;3.90;;;3.30;;
11817;SDS011;5966;52.402;5.322;2022-10-17T15:38:54;4.97;;;2.90;;
11817;SDS011;5966;52.402;5.322;2022-10-17T15:41:23;5.03;;;2.87;;
11817;SDS011;5966;52.402;5.322;2022-10-17T15:43:52;6.80;;;3.37;;
11817;SDS011;5966;52.402;5.322;2022-10-17T15:46:22;4.80;;;3.23;;
11817;SDS011;5966;52.402;5.322;2022-10-17T15:49:01;5.33;;;3.20;;
11817;SDS011;5966;52.402;5.322;2022-10-17T15:51:37;5.23;;;3.20;;
11817;SDS011;5966;52.402;5.322;2022-10-17T15:54:10;4.90;;;3.40;;
11817;SDS011;5966;52.402;5.322;2022-10-17T15:56:40;3.20;;;2.93;;
11817;SDS011;5966;52.402;5.322;2022-10-17T15:59:10;5.57;;;3.23;;
11817;SDS011;5966;52.402;5.322;2022-10-17T16:01:40;4.93;;;3.00;;
11817;SDS011;5966;52.402;5.322;2022-10-17T16:04:08;4.30;;;3.20;;
11817;SDS011;5966;52.402;5.322;2022-10-17T16:06:39;6.70;;;3.30;;
11817;SDS011;5966;52.402;5.322;2022-10-17T16:09:07;5.20;;;2.73;;
11817;SDS011;5966;52.402;5.322;2022-10-17T16:11:36;5.60;;;2.67;;
11817;SDS011;5966;52.402;5.322;2022-10-17T16:14:08;4.77;;;2.73;;
11817;SDS011;5966;52.402;5.322;2022-10-17T16:16:39;3.93;;;2.60;;
11817;SDS011;5966;52.402;5.322;2022-10-17T16:19:08;3.33;;;2.60;;
11817;SDS011;5966;52.402;5.322;2022-10-17T16:21:37;3.70;;;3.07;;
11817;SDS011;5966;52.402;5.322;2022-10-17T16:24:08;5.07;;;2.83;;
11817;SDS011;5966;52.402;5.322;2022-10-17T16:26:39;4.70;;;2.63;;
11817;SDS011;5966;52.402;5.322;2022-10-17T16:29:08;3.27;;;2.50;;
11817;SDS011;5966;52.402;5.322;2022-10-17T16:31:38;2.90;;;2.27;;
11817;SDS011;5966;52.402;5.322;2022-10-17T16:34:09;2.50;;;2.30;;
11817;SDS011;5966;52.402;5.322;2022-10-17T16:36:40;4.73;;;2.80;;
11817;SDS011;5966;52.402;5.322;2022-10-17T16:39:08;4.83;;;2.80;;
11817;SDS011;5966;52.402;5.322;2022-10-17T16:41:36;3.13;;;2.40;;
11817;SDS011;5966;52.402;5.322;2022-10-17T16:44:07;4.40;;;2.30;;
11817;SDS011;5966;52.402;5.322;2022-10-17T16:49:21;5.57;;;3.20;;
11817;SDS011;5966;52.402;5.322;2022-10-17T16:51:53;5.03;;;2.53;;